Time;durP1;ratioP1;P1;durP2;ratioP2;P2;SDS_P1;SDS_P2;PMS_P1;PMS_P2;Temp;Humidity;BMP_temperature;BMP_pressure;BME280_temperature;BME280_humidity;BME280_pressure;Samples;Min_cycle;Max_cycle;Signal;HPM_P1;HPM_P2
2021/12/01 00:00:06;;;;;;;6.68;2.53;;;;;;;7.47;95.10;99752.78;4994287;28;20026;-67
2021/12/01 00:02:32;;;;;;;3.38;2.30;;;;;;;7.37;94.60;99759.22;5009011;28;20508;-67
2021/12/01 00:04:57;;;;;;;3.33;2.50;;;;;;;7.42;94.93;99754.69;4988238;28;20034;-67
2021/12/01 00:07:23;;;;;;;4.03;2.20;;;;;;;7.53;94.10;99744.69;4992226;28;20033;-67
2021/12/01 00:09:48;;;;;;;6.75;3.33;;;;;;;7.49;94.32;99747.47;4989712;28;20042;-67
2021/12/01 00:12:14;;;;;;;5.05;2.63;;;;;;;7.57;93.96;99741.09;4986433;28;20046;-67
2021/12/01 00:14:39;;;;;;;2.90;2.28;;;;;;;7.57;94.27;99738.44;4992425;28;20022;-67
2021/12/01 00:17:10;;;;;;;2.72;1.83;;;;;;;7.50;94.16;99726.25;4983485;28;20026;-67
2021/12/01 00:19:36;;;;;;;4.68;2.42;;;;;;;7.46;94.33;99713.16;4993577;28;20026;-67
2021/12/01 00:22:04;;;;;;;4.32;3.13;;;;;;;7.51;94.56;99722.69;4993513;28;20036;-67
2021/12/01 00:24:30;;;;;;;5.43;2.85;;;;;;;7.53;94.07;99715.59;4975119;28;20723;-67
2021/12/01 00:26:55;;;;;;;4.28;2.72;;;;;;;7.62;93.56;99707.44;4985072;28;20053;-67
2021/12/01 00:29:21;;;;;;;7.97;3.10;;;;;;;7.51;93.34;99700.66;4993245;28;20034;-67
2021/12/01 00:31:46;;;;;;;3.58;2.55;;;;;;;7.32;93.53;99689.66;4985572;28;20038;-67
2021/12/01 00:34:15;;;;;;;5.45;2.75;;;;;;;7.48;93.86;99698.94;4988605;28;20032;-67
2021/12/01 00:36:41;;;;;;;4.53;2.38;;;;;;;7.51;93.44;99690.94;4991296;28;20030;-67
2021/12/01 00:39:07;;;;;;;3.88;2.40;;;;;;;7.63;93.06;99679.16;4983560;28;20540;-67
2021/12/01 00:41:33;;;;;;;4.57;2.42;;;;;;;7.57;92.85;99684.63;4973311;28;20122;-67
2021/12/01 00:44:00;;;;;;;5.65;2.53;;;;;;;7.61;91.88;99681.00;4988628;28;20022;-67
2021/12/01 00:46:38;;;;;;;3.33;2.05;;;;;;;7.54;91.89;99680.28;4982694;28;20037;-67
2021/12/01 00:49:03;;;;;;;5.38;2.63;;;;;;;7.59;91.93;99678.41;4991851;28;20558;-67
2021/12/01 00:51:29;;;;;;;3.50;2.17;;;;;;;7.56;91.41;99661.72;4991200;28;20026;-67
2021/12/01 00:53:54;;;;;;;5.82;2.30;;;;;;;7.63;91.45;99664.16;4989531;28;20023;-67
2021/12/01 00:56:20;;;;;;;4.18;2.30;;;;;;;7.62;91.23;99651.84;4992504;28;20026;-67
2021/12/01 00:58:46;;;;;;;5.43;2.60;;;;;;;7.66;91.66;99663.22;4989416;28;20084;-67
2021/12/01 01:01:11;;;;;;;3.42;2.17;;;;;;;6.49;98.20;99656.41;4986502;28;20023;-67
2021/12/01 01:03:37;;;;;;;3.20;1.92;;;;;;;6.31;100.00;99662.94;4992480;28;20033;-67
2021/12/01 01:06:03;;;;;;;4.28;2.33;;;;;;;6.29;100.00;99658.59;4982409;28;20053;-67
2021/12/01 01:08:29;;;;;;;4.15;2.00;;;;;;;6.28;100.00;99641.00;4977849;28;20038;-67
2021/12/01 01:16:25;;;;;;;5.97;2.13;;;;;;;6.34;100.00;99630.34;4989070;28;20069;-68
2021/12/01 01:19:01;;;;;;;2.95;2.25;;;;;;;6.30;100.00;99618.97;4992547;28;20517;-67
2021/12/01 01:21:31;;;;;;;3.17;2.00;;;;;;;6.35;100.00;99613.56;4994770;28;20022;-67
2021/12/01 01:23:56;;;;;;;3.75;2.17;;;;;;;6.32;100.00;99611.88;4980097;28;20031;-67
2021/12/01 01:26:23;;;;;;;3.28;2.10;;;;;;;6.39;100.00;99625.81;4972737;28;20037;-67
2021/12/01 01:28:49;;;;;;;1.85;1.67;;;;;;;6.38;100.00;99626.69;4977701;28;20542;-67
2021/12/01 01:31:15;;;;;;;3.65;1.80;;;;;;;6.36;100.00;99613.53;4992072;28;20030;-66
2021/12/01 01:33:41;;;;;;;3.08;1.88;;;;;;;6.40;100.00;99611.69;4992204;28;20546;-66
2021/12/01 01:36:08;;;;;;;2.58;1.70;;;;;;;6.32;100.00;99601.31;4992933;28;20030;-67
2021/12/01 01:38:33;;;;;;;3.50;2.03;;;;;;;6.40;100.00;99614.34;4980216;28;20113;-67
2021/12/01 01:41:00;;;;;;;3.85;1.98;;;;;;;6.44;100.00;99616.03;4972433;28;20443;-67
2021/12/01 01:43:26;;;;;;;1.77;1.60;;;;;;;6.41;100.00;99600.22;4980330;28;20539;-67
2021/12/01 01:45:53;;;;;;;3.63;1.98;;;;;;;6.45;100.00;99607.19;4988480;28;20038;-67
2021/12/01 01:48:28;;;;;;;2.35;1.58;;;;;;;6.43;100.00;99606.34;4993680;28;20084;-67
2021/12/01 01:50:53;;;;;;;2.10;1.50;;;;;;;6.37;100.00;99588.00;4992049;28;20027;-70
2021/12/01 01:53:24;;;;;;;2.67;1.85;;;;;;;6.47;100.00;99590.38;4988638;28;20022;-69
2021/12/01 01:55:52;;;;;;;3.03;1.88;;;;;;;6.52;100.00;99585.84;4989617;28;20068;-68
2021/12/01 01:58:21;;;;;;;3.45;1.73;;;;;;;6.52;100.00;99577.94;4992353;28;20081;-67
2021/12/01 02:00:52;;;;;;;4.10;2.13;;;;;;;6.55;100.00;99598.16;4991067;28;20109;-67
2021/12/01 02:03:20;;;;;;;2.83;1.80;;;;;;;6.57;100.00;99585.78;4989714;28;20312;-67
2021/12/01 02:05:46;;;;;;;5.13;2.08;;;;;;;6.57;100.00;99606.91;4991394;28;20023;-67
2021/12/01 02:08:31;;;;;;;3.42;1.77;;;;;;;6.58;100.00;99569.00;4981447;28;20093;-67
2021/12/01 02:11:03;;;;;;;2.83;2.05;;;;;;;6.54;100.00;99570.84;4991332;28;20032;-67
2021/12/01 02:13:29;;;;;;;3.67;2.10;;;;;;;6.59;100.00;99562.81;4982916;28;20065;-67
2021/12/01 02:15:59;;;;;;;3.20;2.00;;;;;;;6.63;100.00;99567.13;4990467;28;20046;-67
2021/12/01 02:18:25;;;;;;;4.28;2.40;;;;;;;6.65;100.00;99552.94;4988846;28;21037;-67
2021/12/01 02:21:18;;;;;;;2.60;1.88;;;;;;;6.57;100.00;99546.13;4988459;28;20034;-68
2021/12/01 02:23:46;;;;;;;4.40;2.00;;;;;;;6.66;100.00;99551.19;4971700;28;20030;-68
2021/12/01 02:26:14;;;;;;;4.07;2.17;;;;;;;6.62;100.00;99550.38;4986537;28;20434;-69
2021/12/01 02:28:42;;;;;;;4.22;2.20;;;;;;;6.58;100.00;99524.09;4991031;28;20027;-69
2021/12/01 02:31:08;;;;;;;2.22;1.65;;;;;;;6.62;100.00;99542.47;4985051;28;20031;-69
2021/12/01 02:33:34;;;;;;;2.60;1.83;;;;;;;6.64;100.00;99508.06;4987462;28;20362;-69
2021/12/01 02:35:59;;;;;;;2.90;1.65;;;;;;;6.66;100.00;99516.84;4990906;28;20056;-69
2021/12/01 02:38:25;;;;;;;3.65;1.83;;;;;;;6.68;100.00;99504.47;4978393;28;20030;-69
2021/12/01 02:40:51;;;;;;;2.92;1.80;;;;;;;6.68;100.00;99504.47;4971899;28;20035;-69
2021/12/01 02:43:17;;;;;;;3.13;1.60;;;;;;;6.68;100.00;99488.59;4982572;28;20034;-68
2021/12/01 02:45:43;;;;;;;2.80;1.60;;;;;;;6.67;100.00;99487.72;4988951;28;20129;-68
2021/12/01 02:48:13;;;;;;;2.63;1.70;;;;;;;6.60;100.00;99466.78;4989978;28;20109;-68
2021/12/01 02:50:41;;;;;;;3.03;2.20;;;;;;;6.67;100.00;99476.31;4985206;28;20041;-68
2021/12/01 02:53:06;;;;;;;3.00;1.80;;;;;;;6.63;100.00;99459.66;4973655;28;20026;-68
2021/12/01 02:55:32;;;;;;;2.25;1.65;;;;;;;6.73;100.00;99465.56;4998066;28;20036;-68
2021/12/01 02:57:59;;;;;;;3.95;1.90;;;;;;;6.70;100.00;99465.66;5010641;28;20022;-68
2021/12/01 03:00:26;;;;;;;2.20;1.38;;;;;;;6.78;100.00;99441.66;5010717;28;20129;-69
2021/12/01 03:02:53;;;;;;;2.83;1.60;;;;;;;6.80;100.00;99456.59;4992201;28;20474;-69
2021/12/01 03:05:19;;;;;;;3.67;1.80;;;;;;;6.78;100.00;99447.81;4990131;28;20037;-69
2021/12/01 03:07:45;;;;;;;2.63;1.65;;;;;;;6.84;100.00;99445.00;4991928;28;20030;-69
2021/12/01 03:10:12;;;;;;;2.40;1.42;;;;;;;6.86;100.00;99450.25;4980340;28;20090;-69
2021/12/01 03:12:40;;;;;;;2.40;1.55;;;;;;;6.89;100.00;99445.75;4974957;28;20506;-69
2021/12/01 03:15:11;;;;;;;1.90;1.70;;;;;;;6.89;100.00;99445.75;4987219;28;20048;-69
2021/12/01 03:17:37;;;;;;;3.22;1.95;;;;;;;6.89;100.00;99429.88;4993745;28;20508;-69
2021/12/01 03:20:07;;;;;;;4.78;1.92;;;;;;;6.95;100.00;99431.50;4990779;28;20034;-69
2021/12/01 03:22:32;;;;;;;3.10;1.95;;;;;;;7.00;100.00;99433.09;4983056;28;20031;-69
2021/12/01 03:24:58;;;;;;;3.00;1.73;;;;;;;7.00;100.00;99443.66;4978069;28;20088;-69
2021/12/01 03:27:23;;;;;;;2.83;1.73;;;;;;;6.89;100.00;99421.97;4983871;28;20098;-69
2021/12/01 03:29:49;;;;;;;2.95;1.70;;;;;;;7.02;100.00;99441.00;4974362;28;20109;-69
2021/12/01 03:32:15;;;;;;;2.72;1.40;;;;;;;7.03;100.00;99432.16;4981369;28;20026;-69
2021/12/01 03:34:42;;;;;;;4.90;1.65;;;;;;;7.05;100.00;99431.19;4974450;28;20026;-69
2021/12/01 03:37:09;;;;;;;2.28;1.48;;;;;;;7.07;100.00;99429.38;4974055;28;20434;-69
2021/12/01 03:39:35;;;;;;;2.35;1.50;;;;;;;7.88;99.12;99423.44;4975290;28;20161;-69
2021/12/01 03:42:00;;;;;;;1.92;1.40;;;;;;;8.34;93.72;99409.59;4992479;28;20028;-69
2021/12/01 03:44:26;;;;;;;2.78;1.30;;;;;;;8.34;91.57;99402.53;4992434;28;20038;-69
2021/12/01 03:46:52;;;;;;;2.65;1.40;;;;;;;8.41;91.20;99379.34;4992203;28;20891;-69
2021/12/01 03:49:18;;;;;;;2.08;1.33;;;;;;;8.59;89.87;99399.91;4993762;28;20513;-69
2021/12/01 03:51:43;;;;;;;1.45;1.27;;;;;;;8.70;89.36;99388.00;5002985;28;20041;-69
2021/12/01 03:54:09;;;;;;;2.55;1.38;;;;;;;8.58;89.12;99348.66;4997092;28;20030;-69
2021/12/01 03:56:35;;;;;;;3.17;1.63;;;;;;;8.68;88.91;99368.63;4996128;28;20060;-69
2021/12/01 03:59:02;;;;;;;3.60;1.38;;;;;;;8.69;88.59;99351.81;4991771;28;20026;-69
2021/12/01 04:01:28;;;;;;;3.13;1.58;;;;;;;8.72;88.75;99345.53;4994357;28;20792;-69
2021/12/01 04:03:53;;;;;;;2.55;1.38;;;;;;;8.76;88.26;99344.50;4993428;28;20026;-69
2021/12/01 04:06:19;;;;;;;1.73;1.23;;;;;;;8.80;88.53;99340.81;4992998;28;20038;-69
2021/12/01 04:08:45;;;;;;;2.50;1.67;;;;;;;8.76;88.26;99329.47;4985404;28;20030;-69
2021/12/01 04:11:10;;;;;;;3.30;1.58;;;;;;;8.78;88.43;99319.66;4992772;28;20069;-69
2021/12/01 04:13:36;;;;;;;2.20;1.38;;;;;;;8.84;88.53;99306.19;4991732;28;20082;-69
2021/12/01 04:16:01;;;;;;;3.15;1.30;;;;;;;8.66;88.99;99306.00;4992550;28;20033;-69
2021/12/01 04:18:27;;;;;;;5.75;1.13;;;;;;;8.87;87.44;99299.91;4992449;28;20054;-69
2021/12/01 04:20:52;;;;;;;1.90;1.17;;;;;;;8.91;87.55;99290.94;4993891;28;20077;-69
2021/12/01 04:23:18;;;;;;;2.03;1.05;;;;;;;8.88;87.22;99299.84;4991543;28;20037;-69
2021/12/01 04:25:43;;;;;;;2.17;1.13;;;;;;;8.93;86.93;99292.59;4992865;28;20033;-69
2021/12/01 04:28:09;;;;;;;3.92;1.20;;;;;;;8.94;86.71;99286.38;4995386;28;20042;-69
2021/12/01 04:30:34;;;;;;;5.90;1.42;;;;;;;9.05;86.65;99264.72;4993578;28;20030;-69
2021/12/01 04:33:00;;;;;;;3.38;1.23;;;;;;;8.95;86.45;99271.31;4990321;28;20424;-69
2021/12/01 04:35:28;;;;;;;2.08;1.05;;;;;;;8.93;86.54;99258.09;5013377;28;20026;-69
2021/12/01 04:37:54;;;;;;;1.60;1.13;;;;;;;9.05;85.98;99256.78;5013432;28;20378;-69
2021/12/01 04:40:20;;;;;;;1.70;1.10;;;;;;;9.00;86.10;99251.66;5006576;28;20057;-69
2021/12/01 04:42:45;;;;;;;1.95;1.10;;;;;;;8.99;86.40;99241.09;4992818;28;20712;-69
2021/12/01 04:45:14;;;;;;;2.55;1.10;;;;;;;9.09;86.34;99253.09;4992663;28;20026;-70
2021/12/01 04:47:51;;;;;;;1.85;0.95;;;;;;;9.11;85.91;99256.53;4979238;28;20105;-69
2021/12/01 04:50:19;;;;;;;1.58;1.05;;;;;;;9.14;85.59;99251.97;4990195;28;20034;-69
2021/12/01 04:52:45;;;;;;;2.85;1.17;;;;;;;9.05;86.10;99230.25;4993592;28;20029;-69
2021/12/01 04:55:12;;;;;;;2.08;1.10;;;;;;;9.13;86.06;99228.16;4988940;28;20462;-69
2021/12/01 04:57:42;;;;;;;1.10;1.00;;;;;;;9.14;85.37;99224.59;4987653;28;20042;-69
2021/12/01 05:00:10;;;;;;;1.88;1.20;;;;;;;9.17;85.83;99224.47;4991766;28;20549;-69
2021/12/01 05:02:36;;;;;;;4.15;1.08;;;;;;;9.09;85.67;99226.56;4997552;28;20347;-70
2021/12/01 05:05:01;;;;;;;6.47;1.73;;;;;;;9.14;85.96;99224.59;5010795;28;20087;-70
2021/12/01 05:07:27;;;;;;;3.67;1.20;;;;;;;9.19;85.89;99214.66;4996130;28;20040;-70
2021/12/01 05:09:54;;;;;;;2.85;1.33;;;;;;;9.21;85.62;99211.00;5009701;28;20026;-70
2021/12/01 05:12:19;;;;;;;2.28;1.20;;;;;;;9.23;85.47;99203.00;4997758;28;20047;-70
2021/12/01 05:14:45;;;;;;;1.63;1.10;;;;;;;9.28;85.52;99193.06;4980991;28;20041;-70
2021/12/01 05:17:10;;;;;;;2.72;1.58;;;;;;;9.31;85.14;99184.97;4990558;28;20494;-69
2021/12/01 05:19:35;;;;;;;5.28;1.42;;;;;;;9.33;84.68;99173.38;4991873;28;20569;-69
2021/12/01 05:22:02;;;;;;;1.55;1.10;;;;;;;9.26;84.62;99160.41;4982274;28;20101;-69
2021/12/01 05:24:28;;;;;;;1.88;1.20;;;;;;;9.24;84.59;99154.31;4991721;28;20077;-70
2021/12/01 05:26:53;;;;;;;1.45;1.10;;;;;;;9.33;84.95;99156.59;4988149;28;20035;-69
2021/12/01 05:29:21;;;;;;;2.03;0.93;;;;;;;9.27;84.44;99148.88;4991904;28;20117;-69
2021/12/01 05:31:48;;;;;;;7.57;1.63;;;;;;;9.32;84.88;99138.94;4990230;28;20475;-69
2021/12/01 05:34:13;;;;;;;2.47;0.90;;;;;;;9.29;84.41;99128.47;4982757;28;20046;-69
2021/12/01 05:36:39;;;;;;;1.40;0.82;;;;;;;9.39;84.49;99144.84;4992102;28;20184;-69
2021/12/01 05:39:04;;;;;;;1.05;0.90;;;;;;;9.42;84.81;99140.28;4991890;28;20092;-69
2021/12/01 05:41:30;;;;;;;1.13;0.82;;;;;;;9.41;84.59;99125.28;4989393;28;20446;-69
2021/12/01 05:43:55;;;;;;;6.18;1.00;;;;;;;9.49;83.84;99125.81;4983838;28;20109;-69
2021/12/01 05:46:21;;;;;;;2.55;1.25;;;;;;;9.53;83.83;99131.84;4992116;28;20034;-69
2021/12/01 05:48:46;;;;;;;1.27;1.05;;;;;;;9.49;84.39;99125.81;4990468;28;20034;-69
2021/12/01 05:51:12;;;;;;;1.42;0.93;;;;;;;9.55;84.11;99122.03;4973361;28;20049;-69
2021/12/01 05:53:37;;;;;;;4.03;1.00;;;;;;;9.52;83.97;99112.44;4978748;28;20037;-69
2021/12/01 05:56:04;;;;;;;1.52;1.17;;;;;;;9.53;83.36;99108.84;4994945;28;20084;-69
2021/12/01 05:58:29;;;;;;;2.45;1.17;;;;;;;9.65;83.21;99100.34;5010387;28;20079;-70
2021/12/01 06:00:54;;;;;;;4.22;1.20;;;;;;;9.67;83.03;99093.16;5003353;28;20030;-70
2021/12/01 06:03:20;;;;;;;2.50;1.30;;;;;;;9.74;82.55;99099.94;4992740;28;20034;-70
2021/12/01 06:05:46;;;;;;;1.88;1.23;;;;;;;9.55;83.29;99076.91;4991206;28;20022;-70
2021/12/01 06:08:11;;;;;;;2.08;1.08;;;;;;;9.74;82.25;99084.00;4981913;28;20030;-69
2021/12/01 06:10:38;;;;;;;1.75;1.20;;;;;;;9.76;83.41;99087.47;4991213;28;20071;-69
2021/12/01 06:13:04;;;;;;;3.40;1.30;;;;;;;9.71;82.67;99076.19;4986315;28;20117;-69
2021/12/01 06:15:31;;;;;;;2.92;1.10;;;;;;;9.79;82.75;99071.38;4991323;28;20018;-69
2021/12/01 06:17:58;;;;;;;3.58;1.10;;;;;;;9.81;82.53;99085.47;4990936;28;20158;-69
2021/12/01 06:20:24;;;;;;;3.78;0.90;;;;;;;9.83;82.37;99078.31;4986863;28;20026;-70
2021/12/01 06:22:50;;;;;;;1.77;1.10;;;;;;;9.81;82.01;99066.88;4991106;28;20034;-70
2021/12/01 06:25:16;;;;;;;1.55;1.10;;;;;;;9.81;82.23;99069.53;4989078;28;20165;-70
2021/12/01 06:27:42;;;;;;;3.67;1.35;;;;;;;9.89;81.88;99061.22;4978471;28;20125;-70
2021/12/01 06:30:08;;;;;;;2.67;1.05;;;;;;;9.95;81.35;99059.13;4971383;28;20590;-70
2021/12/01 06:32:34;;;;;;;1.15;0.95;;;;;;;9.90;81.81;99053.16;4995013;28;20103;-70
2021/12/01 06:35:00;;;;;;;1.42;1.00;;;;;;;9.93;81.68;99044.22;4997087;28;20106;-69
2021/12/01 06:37:25;;;;;;;0.80;0.80;;;;;;;9.85;81.92;99025.97;4974952;28;20026;-69
2021/12/01 06:39:51;;;;;;;0.95;0.80;;;;;;;9.85;81.57;99010.03;4991856;28;20162;-69
2021/12/01 06:42:17;;;;;;;1.92;1.23;;;;;;;9.92;82.06;99022.09;4986391;28;20027;-69
2021/12/01 06:44:42;;;;;;;2.42;1.30;;;;;;;9.62;84.31;99017.31;4983747;28;20022;-69
2021/12/01 06:47:08;;;;;;;8.55;2.28;;;;;;;9.83;82.69;99006.59;4989554;28;20018;-69
2021/12/01 06:49:34;;;;;;;3.05;1.27;;;;;;;9.87;82.42;98994.88;4986870;28;20794;-69
2021/12/01 06:51:59;;;;;;;2.33;1.20;;;;;;;9.39;84.03;98997.09;4991218;28;20037;-69
2021/12/01 06:54:25;;;;;;;2.22;1.05;;;;;;;9.99;81.80;98974.84;4991932;28;20421;-69
2021/12/01 06:56:50;;;;;;;2.58;1.20;;;;;;;10.06;81.42;98968.34;4991490;28;20041;-69
2021/12/01 06:59:16;;;;;;;2.47;1.13;;;;;;;10.00;80.55;98958.84;4990395;28;20038;-69
2021/12/01 07:01:41;;;;;;;2.28;1.02;;;;;;;10.05;80.90;98942.72;4991334;28;20030;-69
2021/12/01 07:04:07;;;;;;;1.48;0.90;;;;;;;10.11;80.57;98942.44;4991643;28;20474;-69
2021/12/01 07:06:32;;;;;;;1.05;0.90;;;;;;;10.09;80.77;98925.72;4988514;28;20031;-69
2021/12/01 07:09:00;;;;;;;1.75;0.70;;;;;;;10.17;80.36;98919.09;4980378;28;20029;-69
2021/12/01 07:11:26;;;;;;;1.33;0.80;;;;;;;10.17;79.59;98919.09;4973626;28;20040;-69
2021/12/01 07:13:52;;;;;;;0.93;0.70;;;;;;;10.19;79.47;98919.91;4987155;28;20061;-69
2021/12/01 07:16:18;;;;;;;1.27;0.73;;;;;;;10.23;79.75;98907.31;4987602;28;20022;-69
2021/12/01 07:18:43;;;;;;;1.77;1.13;;;;;;;10.20;79.02;98894.16;4989614;28;20027;-69
2021/12/01 07:21:09;;;;;;;1.27;0.90;;;;;;;10.35;80.03;98896.94;4986893;28;20034;-69
2021/12/01 07:23:34;;;;;;;0.77;0.60;;;;;;;10.32;79.75;98894.44;4989317;28;20033;-69
2021/12/01 07:26:01;;;;;;;1.40;0.90;;;;;;;10.30;79.84;98893.66;4989442;28;20034;-69
2021/12/01 07:28:27;;;;;;;2.42;0.80;;;;;;;10.41;79.41;98886.00;4987155;28;20027;-69
2021/12/01 07:30:52;;;;;;;1.27;0.90;;;;;;;10.34;80.03;98900.53;4980128;28;20042;-69
2021/12/01 07:33:18;;;;;;;1.35;0.82;;;;;;;10.42;79.57;98879.75;4985687;28;20109;-69
2021/12/01 07:35:43;;;;;;;1.88;0.80;;;;;;;10.44;80.38;98883.16;4979956;28;20081;-69
2021/12/01 07:38:09;;;;;;;0.88;0.75;;;;;;;10.49;80.78;98875.81;4969221;28;20085;-69
2021/12/01 07:40:34;;;;;;;2.92;0.70;;;;;;;10.43;80.52;98864.66;4970180;28;20121;-69
2021/12/01 07:43:00;;;;;;;3.70;1.40;;;;;;;10.47;80.88;98883.03;4971594;28;20026;-69
2021/12/01 07:45:27;;;;;;;2.92;1.10;;;;;;;10.52;80.92;98867.72;4982595;28;20031;-69
2021/12/01 07:47:53;;;;;;;0.68;0.60;;;;;;;10.36;79.90;98871.22;4986142;28;20061;-69
2021/12/01 07:50:19;;;;;;;1.77;0.82;;;;;;;10.43;79.83;98859.31;4977367;28;20022;-69
2021/12/01 07:52:44;;;;;;;1.42;0.90;;;;;;;10.38;80.18;98851.59;4988908;28;20076;-69
2021/12/01 07:55:10;;;;;;;1.70;0.90;;;;;;;10.40;80.84;98847.06;4991878;28;20034;-69
2021/12/01 07:57:35;;;;;;;1.25;0.80;;;;;;;10.37;80.67;98860.50;4990313;28;20041;-69
2021/12/01 08:00:01;;;;;;;1.90;0.90;;;;;;;10.50;80.99;98843.00;4993881;28;20128;-69
2021/12/01 08:02:27;;;;;;;1.35;1.00;;;;;;;10.54;80.54;98823.28;4991822;28;20406;-69
2021/12/01 08:04:53;;;;;;;1.10;0.80;;;;;;;10.44;79.81;98813.22;4995006;28;20026;-69
2021/12/01 08:07:19;;;;;;;1.33;0.70;;;;;;;10.63;79.79;98836.13;4990909;28;20054;-68
2021/12/01 08:09:44;;;;;;;1.30;0.80;;;;;;;10.55;79.33;98814.38;4987877;28;20490;-68
2021/12/01 08:12:11;;;;;;;2.25;1.10;;;;;;;10.85;78.91;98819.03;4984174;28;20055;-68
2021/12/01 08:14:38;;;;;;;1.17;0.88;;;;;;;10.90;78.05;98798.38;4975772;28;20359;-68
2021/12/01 08:17:03;;;;;;;2.13;0.85;;;;;;;10.82;78.08;98795.28;4992262;28;20041;-68
2021/12/01 08:19:29;;;;;;;0.68;0.68;;;;;;;10.87;78.48;98803.88;4986895;28;20034;-68
2021/12/01 08:21:55;;;;;;;3.25;1.10;;;;;;;10.90;76.70;98793.94;4990852;28;20128;-69
2021/12/01 08:24:20;;;;;;;1.05;0.70;;;;;;;10.79;76.68;98790.13;4991581;28;20041;-69
2021/12/01 08:26:47;;;;;;;0.73;0.70;;;;;;;10.81;78.03;98794.41;4991353;28;20037;-69
2021/12/01 08:29:12;;;;;;;1.02;0.80;;;;;;;10.79;77.89;98768.84;4981675;28;20038;-69
2021/12/01 08:31:38;;;;;;;1.13;0.98;;;;;;;10.87;77.22;98783.44;5005060;28;20397;-69
2021/12/01 08:34:04;;;;;;;1.77;0.90;;;;;;;10.90;76.24;98774.44;5003649;28;20065;-69
2021/12/01 08:36:29;;;;;;;2.20;0.98;;;;;;;10.97;77.09;98783.81;4992454;28;20556;-69
2021/12/01 08:38:55;;;;;;;1.10;0.80;;;;;;;10.98;75.84;98773.09;4985157;28;20026;-68
2021/12/01 08:41:21;;;;;;;1.67;0.85;;;;;;;11.11;76.85;98767.94;4990849;28;20042;-68
2021/12/01 08:43:47;;;;;;;2.65;0.93;;;;;;;11.05;76.69;98770.94;4991136;28;20478;-69
2021/12/01 08:46:12;;;;;;;4.88;1.20;;;;;;;10.96;76.55;98768.78;4991912;28;20049;-69
2021/12/01 08:48:38;;;;;;;1.27;0.95;;;;;;;11.15;76.38;98766.84;4975983;28;20037;-69
2021/12/01 08:51:05;;;;;;;1.60;0.90;;;;;;;11.13;75.90;98776.72;4986859;28;20680;-68
2021/12/01 08:53:32;;;;;;;2.10;0.88;;;;;;;11.12;75.74;98761.69;4990379;28;20018;-69
2021/12/01 08:55:59;;;;;;;0.70;0.70;;;;;;;10.67;75.90;98754.41;4990390;28;20030;-69
2021/12/01 08:58:25;;;;;;;1.42;1.00;;;;;;;11.20;76.10;98749.66;4983768;28;20010;-69
2021/12/01 09:00:51;;;;;;;1.38;0.95;;;;;;;11.18;75.22;98758.69;4977374;28;20096;-69
2021/12/01 09:03:18;;;;;;;1.05;0.90;;;;;;;11.24;75.99;98755.69;4989527;28;20105;-69
2021/12/01 09:05:46;;;;;;;1.60;1.08;;;;;;;11.32;75.40;98754.31;4990079;28;20065;-65
2021/12/01 09:08:14;;;;;;;2.22;1.25;;;;;;;11.33;75.44;98756.06;4992373;28;20606;-65
2021/12/01 09:10:40;;;;;;;1.70;0.90;;;;;;;11.33;76.32;98749.88;4992595;28;20034;-65
2021/12/01 09:13:06;;;;;;;2.03;0.80;;;;;;;11.23;75.94;98749.53;4992466;28;20150;-65
2021/12/01 09:15:32;;;;;;;2.30;1.10;;;;;;;11.33;75.52;98755.19;4991615;28;20038;-66
2021/12/01 09:17:58;;;;;;;2.85;1.25;;;;;;;11.39;75.93;98745.06;4992785;28;20022;-66
2021/12/01 09:20:24;;;;;;;1.80;0.80;;;;;;;11.39;76.42;98746.84;4990250;28;20058;-66
2021/12/01 09:22:50;;;;;;;1.98;1.20;;;;;;;11.48;74.99;98743.69;4977006;28;20049;-66
2021/12/01 09:25:17;;;;;;;3.03;1.20;;;;;;;11.41;75.74;98734.31;4991835;28;20038;-66
2021/12/01 09:27:44;;;;;;;2.17;1.30;;;;;;;11.39;76.15;98728.22;4992769;28;20066;-66
2021/12/01 09:30:11;;;;;;;3.13;1.45;;;;;;;11.39;76.87;98722.88;4982435;28;20030;-66
2021/12/01 09:32:38;;;;;;;2.80;1.20;;;;;;;11.45;76.35;98717.25;4990380;28;20041;-66
2021/12/01 09:35:07;;;;;;;3.17;1.75;;;;;;;11.42;75.95;98715.59;4982115;28;20049;-66
2021/12/01 09:37:32;;;;;;;3.65;1.45;;;;;;;11.38;76.83;98710.53;4990974;28;20038;-66
2021/12/01 09:39:58;;;;;;;1.38;0.90;;;;;;;11.39;76.73;98705.13;4990873;28;20030;-66
2021/12/01 09:42:24;;;;;;;2.30;1.58;;;;;;;11.42;76.56;98701.41;4993942;28;20030;-66
2021/12/01 09:44:51;;;;;;;5.05;1.65;;;;;;;11.37;77.26;98692.81;4983178;28;20394;-66
2021/12/01 09:47:20;;;;;;;1.48;0.93;;;;;;;11.40;77.46;98687.34;4991714;28;20037;-66
2021/12/01 09:49:47;;;;;;;4.35;1.23;;;;;;;11.46;77.98;98687.00;4982176;28;20057;-66
2021/12/01 09:52:12;;;;;;;4.07;1.40;;;;;;;11.47;77.10;98686.03;4974532;28;20066;-66
2021/12/01 09:54:39;;;;;;;1.88;1.02;;;;;;;11.46;77.05;98682.53;4974368;28;20058;-66
2021/12/01 09:57:06;;;;;;;1.60;1.08;;;;;;;11.46;77.91;98682.53;4984381;28;20034;-66
2021/12/01 09:59:32;;;;;;;2.70;1.13;;;;;;;11.53;77.55;98675.06;4991501;28;20034;-66
2021/12/01 10:01:57;;;;;;;2.40;1.20;;;;;;;11.43;78.18;98672.03;4994682;28;20026;-66
2021/12/01 10:04:24;;;;;;;1.60;0.90;;;;;;;11.46;77.68;98660.38;4992809;28;20115;-66
2021/12/01 10:06:49;;;;;;;0.68;0.68;;;;;;;11.54;77.12;98658.13;4985583;28;20105;-66
2021/12/01 10:09:18;;;;;;;2.17;1.23;;;;;;;11.61;77.14;98654.16;4986455;28;20445;-66
2021/12/01 10:11:44;;;;;;;3.88;1.13;;;;;;;11.55;76.98;98650.03;4991236;28;20397;-66
2021/12/01 10:14:18;;;;;;;4.55;2.00;;;;;;;11.46;77.88;98636.41;4983493;28;20047;-66
2021/12/01 10:16:45;;;;;;;7.68;2.83;;;;;;;11.55;77.87;98630.53;4988832;28;20022;-66
2021/12/01 10:19:15;;;;;;;2.75;1.33;;;;;;;11.45;79.36;98613.41;4991603;28;20030;-66
2021/12/01 10:21:43;;;;;;;2.45;1.05;;;;;;;11.39;80.74;98608.41;4991870;28;20033;-66
2021/12/01 10:24:13;;;;;;;1.08;0.90;;;;;;;11.47;80.83;98608.81;4994103;28;20030;-66
2021/12/01 10:26:45;;;;;;;2.20;1.23;;;;;;;11.38;82.30;98601.38;4984343;28;20030;-66
2021/12/01 10:29:23;;;;;;;1.75;1.30;;;;;;;11.29;83.30;98584.13;4982938;28;20772;-66
2021/12/01 10:31:54;;;;;;;1.95;1.20;;;;;;;11.30;83.40;98590.34;4987185;28;20026;-66
2021/12/01 10:34:36;;;;;;;2.55;1.10;;;;;;;11.28;84.02;98582.44;4991650;28;20026;-66
2021/12/01 10:37:26;;;;;;;1.00;0.80;;;;;;;11.26;83.87;98580.78;4991395;28;20023;-66
2021/12/01 10:40:21;;;;;;;2.10;1.15;;;;;;;11.36;84.77;98580.19;4982404;28;20049;-66
2021/12/01 10:43:01;;;;;;;2.03;1.10;;;;;;;11.28;84.02;98570.91;4981345;28;20407;-66
2021/12/01 10:45:35;;;;;;;1.15;0.90;;;;;;;11.42;84.10;98565.63;4991124;28;20108;-66
2021/12/01 10:48:02;;;;;;;3.53;1.13;;;;;;;11.36;84.06;98555.34;4991586;28;20512;-66
2021/12/01 10:50:33;;;;;;;1.33;1.15;;;;;;;11.43;84.32;98554.06;4991647;28;20076;-66
2021/12/01 10:53:12;;;;;;;4.07;1.58;;;;;;;11.44;83.33;98545.09;4989482;28;20045;-66
2021/12/01 10:55:46;;;;;;;1.67;1.30;;;;;;;11.50;84.36;98534.94;4990983;28;20034;-66
2021/12/01 10:58:12;;;;;;;2.22;1.35;;;;;;;11.53;84.25;98533.94;4988154;28;20026;-66
2021/12/01 11:00:43;;;;;;;3.00;1.30;;;;;;;11.52;83.77;98527.72;4987465;28;20026;-66
2021/12/01 11:03:12;;;;;;;2.47;1.13;;;;;;;11.51;83.99;98514.50;4990137;28;20035;-66
2021/12/01 11:05:41;;;;;;;1.17;0.93;;;;;;;11.58;84.28;98513.19;4988428;28;20053;-66
2021/12/01 11:08:20;;;;;;;1.20;0.88;;;;;;;11.61;83.86;98511.19;4990631;28;20026;-66
2021/12/01 11:10:48;;;;;;;1.85;1.15;;;;;;;11.59;84.39;98490.94;4987760;28;20034;-66
2021/12/01 11:13:15;;;;;;;2.00;1.05;;;;;;;11.61;84.51;98499.69;4975223;28;20047;-66
2021/12/01 11:15:42;;;;;;;2.67;1.38;;;;;;;11.67;84.33;98483.38;4982744;28;20100;-66
2021/12/01 11:18:20;;;;;;;1.02;0.90;;;;;;;11.69;83.89;98484.13;4991441;28;20069;-66
2021/12/01 11:20:53;;;;;;;1.40;1.02;;;;;;;11.69;83.58;98477.00;4983331;28;20026;-66
2021/12/01 11:23:33;;;;;;;;;;;;;;;11.70;84.16;98459.19;4990956;28;20422;-66
2021/12/01 11:26:05;;;;;;;2.10;1.38;;;;;;;11.79;83.07;98454.16;4978841;28;20298;-66
2021/12/01 11:28:33;;;;;;;1.42;1.00;;;;;;;11.77;83.47;98447.22;4974585;28;20035;-66
2021/12/01 11:31:06;;;;;;;0.95;0.88;;;;;;;11.90;83.11;98438.38;4977667;28;20487;-66
2021/12/01 11:33:32;;;;;;;1.98;1.27;;;;;;;11.91;83.32;98434.75;5012341;28;20033;-66
2021/12/01 11:36:00;;;;;;;2.95;1.30;;;;;;;11.82;83.45;98423.81;5010207;28;20022;-66
2021/12/01 11:38:26;;;;;;;2.92;1.27;;;;;;;11.94;82.68;98423.06;5014350;28;20021;-66
2021/12/01 11:40:52;;;;;;;2.08;1.15;;;;;;;11.97;83.04;98422.84;4988711;28;20034;-66